Airfield :
LOGIN :

Register | Disclaimer

   EN    FR    IT 

 










Legend :    VFR   Marginal VFR   IFR   Intensive IFR   Very Intensive IFR
Visi :
Ceiling :
>= 8 km
>= 3000ft
5 to 8 km
1000 to 3000 ft
1500m to 5 km
500 to 1000 ft
800 to 1500m
200 to 500 ft
< 800m
< 200 ft
Symbols :   Thunderstorms  Fog  Heavy snow  Heavy precipitations  Wind > 20 kt
SIGMETs :     Misc.  Thunderstorms  Icing  Turbulence  Mountain Waves  Volcanic Ashes







- Airport Elevation : 512 ft
- IATA code : URO
- Download approach charts


LFOP - Rouen Vallée de Seine

CURRENT METAR :
  • 260930Z AUTO /////KT 9999 OVC007 14/13 Q1018

EXPIRED METARs :
  • 260900Z AUTO 25008KT 220V280 9999 OVC005 13/13 Q1018 BECMG BKN030
  • 260830Z AUTO /////KT 9000 OVC004 13/12 Q1018
  • 260800Z AUTO /////KT 7000 OVC004 13/12 Q1018
  • 260730Z AUTO 25010KT 3600 BR OVC003 12/12 Q1018 BECMG 9999 NSW BKN030
  • 260700Z AUTO /////KT 3300 BR OVC003 12/12 Q1018

TAF TAF LFOP
Valid from the 26 at 06:00 until the 27 at 06:00 UTC


260500Z 2606/2706 26008KT 3000 BR OVC006
TEMPO 2606/2608 0600 FG VV///
BECMG 2608/2611 9999 NSW BKN030
TEMPO 2618/2621 4000 RA BKN007
TEMPO 2621/2702 4000 DZ OVC003
ATIS : +33 2 35 80 80 34
Met : +33 2 32 86 52 80
No reported NOTAMs for that airfield.



MET'MAP, your aeronautical weather chart ! - Copyright ORBIFLY December 2007 - Disclaimer

ORBIFLY MET'MAP TEAM :

Programming & Development : Alexandra Zaïnal
Concept & Development : Baudouin d'Aumeries
Co-Development & Prog : Marc-Olivier Méhu
Technical & hardware support : Manuel Goepfert

Contact : metmap@orbifly.com




SOURCES & CREDITS :

   NOAA